createdAt,value
2019-05-13T00:00:34.265Z,19.73
2019-05-13T00:03:03.688Z,24.63
2019-05-13T00:05:33.920Z,17.23
2019-05-13T00:08:03.508Z,21.20
2019-05-13T00:10:34.750Z,17.35
2019-05-13T00:13:04.342Z,20.35
2019-05-13T00:15:34.237Z,16.55
2019-05-13T00:18:03.956Z,16.60
2019-05-13T00:20:33.851Z,19.77
2019-05-13T00:23:03.918Z,18.40
2019-05-13T00:25:33.827Z,13.78
2019-05-13T00:28:04.157Z,21.65
2019-05-13T00:30:34.325Z,18.45
2019-05-13T00:33:03.754Z,18.62
2019-05-13T00:35:33.801Z,21.80
2019-05-13T00:38:03.923Z,17.67
2019-05-13T00:40:33.735Z,24.05
2019-05-13T00:43:03.738Z,20.15
2019-05-13T00:45:33.934Z,25.25
2019-05-13T00:48:04.629Z,13.22
2019-05-13T00:50:33.662Z,12.15
2019-05-13T00:53:04.419Z,18.15
2019-05-13T00:55:34.339Z,15.70
2019-05-13T00:58:04.553Z,16.60
2019-05-13T01:00:34.215Z,18.27
2019-05-13T01:03:04.140Z,16.15
2019-05-13T01:05:34.073Z,20.43
2019-05-13T01:08:04.186Z,16.93
2019-05-13T01:10:34.462Z,22.67
2019-05-13T01:13:04.644Z,19.27
2019-05-13T01:15:34.535Z,20.70
2019-05-13T01:18:03.981Z,17.77
2019-05-13T01:20:34.605Z,22.52
2019-05-13T01:23:03.937Z,16.65
2019-05-13T01:25:33.965Z,22.77
2019-05-13T01:28:04.636Z,21.90
2019-05-13T01:30:34.697Z,15.23
2019-05-13T01:33:04.425Z,21.85
2019-05-13T01:35:34.180Z,17.50
2019-05-13T01:38:04.563Z,24.47
2019-05-13T01:40:34.687Z,15.45
2019-05-13T01:43:03.855Z,23.32
2019-05-13T01:45:33.816Z,22.58
2019-05-13T01:48:06.683Z,18.98
2019-05-13T01:50:33.702Z,18.65
2019-05-13T01:53:04.181Z,16.87
2019-05-13T01:55:33.886Z,22.60
2019-05-13T01:58:04.336Z,19.45
2019-05-13T02:00:35.435Z,15.60
2019-05-13T02:03:04.223Z,19.23
2019-05-13T02:05:33.926Z,16.40
2019-05-13T02:08:04.505Z,18.75
2019-05-13T02:10:54.486Z,22.52
2019-05-13T02:13:24.448Z,16.82
2019-05-13T02:15:54.978Z,9.65
2019-05-13T02:18:24.580Z,18.20
2019-05-13T02:20:55.460Z,15.08
2019-05-13T02:23:24.275Z,19.50
2019-05-13T02:25:54.259Z,19.25
2019-05-13T02:28:24.880Z,20.92
2019-05-13T02:30:56.131Z,24.77
2019-05-13T02:33:23.954Z,15.23
2019-05-13T02:35:53.320Z,14.50
2019-05-13T02:38:26.418Z,15.23
2019-05-13T02:40:52.975Z,19.75
2019-05-13T02:43:23.032Z,15.83
2019-05-13T02:45:53.198Z,16.60
2019-05-13T02:48:23.634Z,16.17
2019-05-13T02:50:53.990Z,15.00
2019-05-13T02:53:24.020Z,17.37
2019-05-13T02:55:53.141Z,25.72
2019-05-13T02:58:24.147Z,15.85
2019-05-13T03:00:53.366Z,23.12
2019-05-13T03:03:23.173Z,14.78
2019-05-13T03:05:53.216Z,20.20
2019-05-13T03:08:38.705Z,15.85
2019-05-13T03:10:53.452Z,12.90
2019-05-13T03:13:23.619Z,18.07
2019-05-13T03:16:13.261Z,17.80
2019-05-13T03:18:43.530Z,14.07
2019-05-13T03:21:13.332Z,14.87
2019-05-13T03:23:43.967Z,19.92
2019-05-13T03:26:13.000Z,13.20
2019-05-13T03:28:43.528Z,19.10
2019-05-13T03:31:16.733Z,16.77
2019-05-13T03:33:46.661Z,17.92
2019-05-13T03:36:16.638Z,13.00
2019-05-13T03:38:59.288Z,17.62
2019-05-13T03:41:17.114Z,21.60
2019-05-13T03:46:13.726Z,16.95
2019-05-13T03:48:43.223Z,16.82
2019-05-13T03:51:13.357Z,19.45
2019-05-13T03:53:43.387Z,19.92
2019-05-13T03:56:13.243Z,17.55
2019-05-13T03:58:43.239Z,15.80
2019-05-13T04:01:13.038Z,15.70
2019-05-13T04:03:44.034Z,18.37
2019-05-13T04:06:14.011Z,23.60
2019-05-13T04:08:43.827Z,17.92
2019-05-13T04:11:13.454Z,17.92
2019-05-13T04:13:42.911Z,23.07
2019-05-13T04:16:13.003Z,18.65
2019-05-13T04:18:42.970Z,12.47
2019-05-13T04:21:13.050Z,20.23
2019-05-13T04:23:42.830Z,13.08
2019-05-13T04:26:14.928Z,13.90
2019-05-13T04:28:43.602Z,15.25
2019-05-13T04:31:14.086Z,18.75
2019-05-13T04:33:43.175Z,17.27
2019-05-13T04:36:13.389Z,17.35
2019-05-13T04:38:44.321Z,14.93
2019-05-13T04:41:12.321Z,18.87
2019-05-13T04:43:43.686Z,17.20
2019-05-13T04:46:13.961Z,18.20
2019-05-13T04:48:44.134Z,19.60
2019-05-13T04:51:13.775Z,16.35
2019-05-13T04:53:42.896Z,13.90
2019-05-13T04:56:13.723Z,16.25
2019-05-13T04:58:43.011Z,19.67
2019-05-13T05:01:24.085Z,16.57
2019-05-13T05:04:13.982Z,16.10
2019-05-13T05:06:58.935Z,13.55
2019-05-13T05:10:13.089Z,17.57
2019-05-13T05:12:22.910Z,16.55
2019-05-13T05:15:23.442Z,11.22
2019-05-13T05:18:02.838Z,23.22
2019-05-13T05:20:41.483Z,16.50
2019-05-13T05:23:31.923Z,18.25
2019-05-13T05:26:31.291Z,12.25
2019-05-13T05:29:11.260Z,18.90
2019-05-13T05:32:02.135Z,14.20
2019-05-13T05:34:41.836Z,17.23
2019-05-13T05:37:31.290Z,18.67
2019-05-13T05:40:01.935Z,20.72
2019-05-13T05:42:32.495Z,17.40
2019-05-13T05:45:02.744Z,12.25
2019-05-13T05:47:34.177Z,15.50
2019-05-13T05:50:03.766Z,14.30
2019-05-13T05:52:34.813Z,22.75
2019-05-13T05:55:03.745Z,13.43
2019-05-13T05:57:33.727Z,17.07
2019-05-13T06:00:03.713Z,24.65
2019-05-13T06:02:33.732Z,13.40
2019-05-13T06:05:04.652Z,13.00
2019-05-13T06:07:34.822Z,17.20
2019-05-13T06:10:05.486Z,21.60
2019-05-13T06:12:35.259Z,14.18
2019-05-13T06:15:05.041Z,19.70
2019-05-13T06:17:33.672Z,12.98
2019-05-13T06:20:04.003Z,10.72
2019-05-13T06:22:32.828Z,16.20
2019-05-13T06:25:01.722Z,14.13
2019-05-13T06:27:31.754Z,14.00
2019-05-13T06:30:02.233Z,10.00
2019-05-13T06:32:31.605Z,15.75
2019-05-13T06:35:01.978Z,15.23
2019-05-13T06:37:32.185Z,15.83
2019-05-13T06:40:02.040Z,14.03
2019-05-13T06:42:32.473Z,13.03
2019-05-13T06:45:01.923Z,13.85
2019-05-13T06:47:32.193Z,12.93
2019-05-13T06:50:03.086Z,10.45
2019-05-13T06:52:31.920Z,13.78
2019-05-13T06:55:02.754Z,11.00
2019-05-13T06:57:32.239Z,16.97
2019-05-13T07:00:01.723Z,16.07
2019-05-13T07:02:32.039Z,14.83
2019-05-13T07:05:02.394Z,14.35
2019-05-13T07:07:31.865Z,9.28
2019-05-13T07:10:02.461Z,12.03
2019-05-13T07:12:31.321Z,11.15
2019-05-13T07:15:02.266Z,9.23
2019-05-13T07:17:32.360Z,9.30
2019-05-13T07:20:02.325Z,11.63
2019-05-13T07:22:32.169Z,11.12
2019-05-13T07:25:02.608Z,9.75
2019-05-13T07:27:31.898Z,10.05
2019-05-13T07:30:02.262Z,14.20
2019-05-13T07:32:31.617Z,7.17
2019-05-13T07:35:03.449Z,10.53
2019-05-13T07:37:31.962Z,11.28
2019-05-13T07:40:02.520Z,6.95
2019-05-13T07:42:31.333Z,8.65
2019-05-13T07:45:01.499Z,6.10
2019-05-13T07:47:31.445Z,6.80
2019-05-13T07:50:02.559Z,8.70
2019-05-13T07:52:31.999Z,10.55
2019-05-13T07:55:01.671Z,9.73
2019-05-13T07:57:31.906Z,8.63
2019-05-13T08:00:01.989Z,7.53
2019-05-13T08:02:31.940Z,8.83
2019-05-13T08:05:02.369Z,9.78
2019-05-13T08:07:31.583Z,7.65
2019-05-13T08:10:03.242Z,4.20
2019-05-13T08:12:31.984Z,6.12
2019-05-13T08:15:03.153Z,7.15
2019-05-13T08:17:32.687Z,4.42
2019-05-13T08:20:02.837Z,3.75
2019-05-13T08:22:32.053Z,5.15
2019-05-13T08:25:03.031Z,7.67
2019-05-13T08:27:34.983Z,5.17
2019-05-13T08:30:01.809Z,6.20
2019-05-13T08:32:31.559Z,4.47
2019-05-13T08:35:07.027Z,7.12
2019-05-13T08:37:32.129Z,9.05
2019-05-13T08:40:01.616Z,7.15
2019-05-13T08:42:32.256Z,8.08
2019-05-13T08:45:01.862Z,3.40
2019-05-13T08:47:31.479Z,7.10
2019-05-13T08:50:03.967Z,4.53
2019-05-13T08:52:31.333Z,5.92
2019-05-13T08:55:01.565Z,7.22
2019-05-13T08:57:31.543Z,10.93
2019-05-13T09:00:04.666Z,5.80
2019-05-13T09:02:31.370Z,6.53
2019-05-13T09:05:02.344Z,4.47
2019-05-13T09:07:32.062Z,7.95
2019-05-13T09:10:01.884Z,5.65
2019-05-13T09:12:35.710Z,5.90
2019-05-13T09:15:03.289Z,6.75
2019-05-13T09:17:31.908Z,7.25
2019-05-13T09:20:02.843Z,6.67
2019-05-13T09:22:31.897Z,5.30
2019-05-13T09:25:02.111Z,3.90
2019-05-13T09:27:31.882Z,2.65
2019-05-13T09:30:02.769Z,6.03
2019-05-13T09:32:31.875Z,3.47
2019-05-13T09:35:02.935Z,5.40
2019-05-13T09:37:31.689Z,7.35
2019-05-13T09:40:02.378Z,3.08
2019-05-13T09:42:47.561Z,4.65
2019-05-13T09:45:02.300Z,3.67
2019-05-13T09:47:32.167Z,4.37
2019-05-13T09:50:00.746Z,5.87
2019-05-13T09:52:31.726Z,4.12
2019-05-13T09:55:02.849Z,5.03
2019-05-13T09:57:32.137Z,5.53
2019-05-13T10:00:01.713Z,6.03
2019-05-13T10:02:32.104Z,1.80
2019-05-13T10:05:02.232Z,4.70
2019-05-13T10:07:31.856Z,7.00
2019-05-13T10:10:01.629Z,3.60
2019-05-13T10:12:31.942Z,3.15
2019-05-13T10:15:02.167Z,8.40
2019-05-13T10:17:31.914Z,3.85
2019-05-13T10:20:00.826Z,3.02
2019-05-13T10:22:31.753Z,5.10
2019-05-13T10:25:02.182Z,4.62
2019-05-13T10:27:32.517Z,2.55
2019-05-13T10:30:00.876Z,5.28
2019-05-13T10:32:32.224Z,3.60
2019-05-13T10:35:03.200Z,2.92
2019-05-13T10:37:32.312Z,5.58
2019-05-13T10:40:02.382Z,1.55
2019-05-13T10:42:31.049Z,5.33
2019-05-13T10:45:02.271Z,2.75
2019-05-13T10:47:29.746Z,5.53
2019-05-13T10:49:58.167Z,4.25
2019-05-13T10:52:26.873Z,5.45
2019-05-13T10:54:55.604Z,4.67
2019-05-13T10:57:24.023Z,7.05
2019-05-13T10:59:53.006Z,3.95
2019-05-13T11:02:22.139Z,4.70
2019-05-13T11:04:52.559Z,8.10
2019-05-13T11:07:22.543Z,5.85
2019-05-13T11:09:52.690Z,3.52
2019-05-13T11:12:25.580Z,3.45
2019-05-13T11:14:55.185Z,3.60
2019-05-13T11:17:30.332Z,3.25
2019-05-13T11:19:52.561Z,6.17
2019-05-13T11:22:22.577Z,7.55
2019-05-13T11:24:51.950Z,5.03
2019-05-13T11:27:23.268Z,2.37
2019-05-13T11:29:52.337Z,3.60
2019-05-13T11:32:22.378Z,3.37
2019-05-13T11:34:53.078Z,4.95
2019-05-13T11:37:23.138Z,12.05
2019-05-13T11:39:51.822Z,4.92
2019-05-13T11:42:22.635Z,7.83
2019-05-13T11:44:52.715Z,4.10
2019-05-13T11:47:24.318Z,5.40
2019-05-13T11:49:53.303Z,7.55
2019-05-13T11:52:22.748Z,5.15
2019-05-13T11:54:53.782Z,5.72
2019-05-13T11:57:21.864Z,6.58
2019-05-13T11:59:52.960Z,8.33
2019-05-13T12:02:23.212Z,8.30
2019-05-13T12:04:53.554Z,6.78
2019-05-13T12:07:23.169Z,5.05
2019-05-13T12:09:52.869Z,8.45
2019-05-13T12:12:23.471Z,4.47
2019-05-13T12:15:20.276Z,5.37
2019-05-13T12:17:22.748Z,6.50
2019-05-13T12:19:54.342Z,5.12
2019-05-13T12:22:22.926Z,5.62
2019-05-13T12:24:52.211Z,4.37
2019-05-13T12:27:21.303Z,4.67
2019-05-13T12:29:53.416Z,4.37
2019-05-13T12:32:22.661Z,3.98
2019-05-13T12:34:52.598Z,2.77
2019-05-13T12:37:22.209Z,5.03
2019-05-13T12:39:53.194Z,4.20
2019-05-13T12:42:22.673Z,10.45
2019-05-13T12:45:08.384Z,4.30
2019-05-13T12:47:22.843Z,5.60
2019-05-13T12:49:51.408Z,3.42
2019-05-13T12:52:22.177Z,3.22
2019-05-13T12:54:52.752Z,3.35
2019-05-13T12:57:23.084Z,3.42
2019-05-13T12:59:50.969Z,6.08
2019-05-13T13:02:21.849Z,4.80
2019-05-13T13:05:08.653Z,6.70
2019-05-13T13:07:21.571Z,4.00
2019-05-13T13:09:53.505Z,8.38
2019-05-13T13:12:33.450Z,4.62
2019-05-13T13:14:54.400Z,4.90
2019-05-13T13:17:24.181Z,5.95
2019-05-13T13:19:54.768Z,4.35
2019-05-13T13:22:25.339Z,3.05
2019-05-13T13:24:57.137Z,2.65
2019-05-13T13:27:37.825Z,5.00
2019-05-13T13:30:02.734Z,4.45
2019-05-13T13:32:24.705Z,7.25
2019-05-13T13:34:54.707Z,4.67
2019-05-13T13:37:23.576Z,4.55
2019-05-13T13:39:54.981Z,3.00
2019-05-13T13:42:22.382Z,5.65
2019-05-13T13:44:53.840Z,4.62
2019-05-13T13:47:24.231Z,3.72
2019-05-13T13:49:53.272Z,4.60
2019-05-13T13:52:22.689Z,5.20
2019-05-13T13:55:02.041Z,2.22
2019-05-13T13:57:25.550Z,4.17
2019-05-13T14:02:25.242Z,7.50
2019-05-13T14:04:54.136Z,4.30
2019-05-13T14:07:31.281Z,5.45
2019-05-13T14:09:53.072Z,3.30
2019-05-13T14:12:22.058Z,2.12
2019-05-13T14:14:52.050Z,4.08
2019-05-13T14:17:21.953Z,5.03
2019-05-13T14:19:52.362Z,3.05
2019-05-13T14:22:21.861Z,4.33
2019-05-13T14:24:51.873Z,4.28
2019-05-13T14:27:22.372Z,4.83
2019-05-13T14:29:52.689Z,2.42
2019-05-13T14:32:22.480Z,5.50
2019-05-13T14:34:52.550Z,3.75
2019-05-13T14:37:22.320Z,3.92
2019-05-13T14:39:51.180Z,2.30
2019-05-13T14:42:22.554Z,3.40
2019-05-13T14:44:51.914Z,3.65
2019-05-13T14:47:21.804Z,4.33
2019-05-13T14:49:52.142Z,3.42
2019-05-13T14:52:22.228Z,4.28
2019-05-13T14:54:51.578Z,5.35
2019-05-13T14:57:21.865Z,2.85
2019-05-13T14:59:51.399Z,2.95
2019-05-13T15:02:20.685Z,3.45
2019-05-13T15:04:52.173Z,3.52
2019-05-13T15:07:21.637Z,3.40
2019-05-13T15:09:51.514Z,3.55
2019-05-13T15:12:21.646Z,6.87
2019-05-13T15:14:52.341Z,2.10
2019-05-13T15:17:21.487Z,7.08
2019-05-13T15:19:52.467Z,5.10
2019-05-13T15:22:22.676Z,3.65
2019-05-13T15:24:51.945Z,2.87
2019-05-13T15:27:22.266Z,4.00
2019-05-13T15:29:51.582Z,3.40
2019-05-13T15:32:21.743Z,4.95
2019-05-13T15:34:51.849Z,6.83
2019-05-13T15:37:21.470Z,5.75
2019-05-13T15:39:51.862Z,2.98
2019-05-13T15:42:21.393Z,4.47
2019-05-13T15:44:50.062Z,4.50
2019-05-13T15:47:24.157Z,5.15
2019-05-13T15:49:52.966Z,4.83
2019-05-13T15:52:22.616Z,4.33
2019-05-13T15:54:52.227Z,3.47
2019-05-13T15:57:21.412Z,3.67
2019-05-13T15:59:51.810Z,5.20
2019-05-13T16:02:22.661Z,2.80
2019-05-13T16:05:00.677Z,2.33
2019-05-13T16:09:52.449Z,3.55
2019-05-13T16:12:21.334Z,2.72
2019-05-13T16:14:50.154Z,8.23
2019-05-13T16:17:23.059Z,3.55
2019-05-13T16:19:49.281Z,3.98
2019-05-13T16:22:18.222Z,3.92
2019-05-13T16:24:47.478Z,4.58
2019-05-13T16:27:16.040Z,3.65
2019-05-13T16:29:45.090Z,4.90
2019-05-13T16:32:14.364Z,3.30
2019-05-13T16:34:43.048Z,7.65
2019-05-13T16:37:11.870Z,4.50
2019-05-13T16:39:41.378Z,5.12
2019-05-13T16:42:11.707Z,3.85
2019-05-13T16:44:43.048Z,3.50
2019-05-13T16:47:12.315Z,3.80
2019-05-13T16:49:41.193Z,3.70
2019-05-13T16:52:11.653Z,4.58
2019-05-13T16:54:42.390Z,5.20
2019-05-13T16:57:10.312Z,5.05
2019-05-13T16:59:40.924Z,6.20
2019-05-13T17:02:09.083Z,6.05
2019-05-13T17:04:37.703Z,5.62
2019-05-13T17:07:06.161Z,3.90
2019-05-13T17:09:34.949Z,2.67
2019-05-13T17:12:03.387Z,4.60
2019-05-13T17:14:32.355Z,4.78
2019-05-13T17:17:01.307Z,5.55
2019-05-13T17:19:31.763Z,4.53
2019-05-13T17:22:02.290Z,4.97
2019-05-13T17:24:31.862Z,3.95
2019-05-13T17:27:01.911Z,3.55
2019-05-13T17:29:31.715Z,2.52
2019-05-13T17:32:02.371Z,3.55
2019-05-13T17:34:31.866Z,3.52
2019-05-13T17:37:02.719Z,5.37
2019-05-13T17:39:32.175Z,6.37
2019-05-13T17:42:01.512Z,3.20
2019-05-13T17:44:31.832Z,5.40
2019-05-13T17:47:01.749Z,2.62
2019-05-13T17:49:31.850Z,3.12
2019-05-13T17:52:02.636Z,2.75
2019-05-13T17:54:32.104Z,9.88
2019-05-13T17:57:01.826Z,7.62
2019-05-13T17:59:31.453Z,4.03
2019-05-13T18:02:02.569Z,4.87
2019-05-13T18:04:31.390Z,4.85
2019-05-13T18:07:01.636Z,3.87
2019-05-13T18:09:31.809Z,4.22
2019-05-13T18:12:02.443Z,5.62
2019-05-13T18:14:31.002Z,6.70
2019-05-13T18:17:02.188Z,6.35
2019-05-13T18:19:31.725Z,7.10
2019-05-13T18:22:02.278Z,3.42
2019-05-13T18:24:32.351Z,4.28
2019-05-13T18:27:01.515Z,3.40
2019-05-13T18:29:31.582Z,2.90
2019-05-13T18:32:01.905Z,4.17
2019-05-13T18:34:32.113Z,5.78
2019-05-13T18:37:02.431Z,5.95
2019-05-13T18:39:32.226Z,2.42
2019-05-13T18:42:01.206Z,4.12
2019-05-13T18:44:31.655Z,3.47
2019-05-13T18:47:01.660Z,8.23
2019-05-13T18:49:31.822Z,5.47
2019-05-13T18:52:00.964Z,3.95
2019-05-13T18:54:31.618Z,5.97
2019-05-13T18:57:01.718Z,8.40
2019-05-13T18:59:32.164Z,5.58
2019-05-13T19:02:01.540Z,3.90
2019-05-13T19:04:31.264Z,5.00
2019-05-13T19:07:02.282Z,7.33
2019-05-13T19:09:31.079Z,4.25
2019-05-13T19:12:01.396Z,4.03
2019-05-13T19:14:31.789Z,7.83
2019-05-13T19:17:01.115Z,4.90
2019-05-13T19:19:31.639Z,4.87
2019-05-13T19:22:02.177Z,3.67
2019-05-13T19:24:31.499Z,7.42
2019-05-13T19:27:01.730Z,3.25
2019-05-13T19:29:31.793Z,6.85
2019-05-13T19:32:01.830Z,6.97
2019-05-13T19:34:32.399Z,8.50
2019-05-13T19:37:02.352Z,10.50
2019-05-13T19:39:31.330Z,6.60
2019-05-13T19:41:59.869Z,5.55
2019-05-13T19:44:28.814Z,4.62
2019-05-13T19:46:57.584Z,6.17
2019-05-13T19:49:32.162Z,5.08
2019-05-13T19:51:57.749Z,13.05
2019-05-13T19:54:26.195Z,4.72
2019-05-13T19:56:55.886Z,6.42
2019-05-13T19:59:25.287Z,5.70
2019-05-13T20:01:55.171Z,4.40
2019-05-13T20:04:23.798Z,7.55
2019-05-13T20:06:52.291Z,7.37
2019-05-13T20:09:21.483Z,3.35
2019-05-13T20:11:55.270Z,5.30
2019-05-13T20:14:23.081Z,5.72
2019-05-13T20:16:52.447Z,7.70
2019-05-13T20:19:22.310Z,10.00
2019-05-13T20:21:51.827Z,7.67
2019-05-13T20:24:21.995Z,7.15
2019-05-13T20:26:52.219Z,6.80
2019-05-13T20:29:20.948Z,5.65
2019-05-13T20:31:51.849Z,7.78
2019-05-13T20:34:22.193Z,4.65
2019-05-13T20:36:51.612Z,5.15
2019-05-13T20:39:22.461Z,4.50
2019-05-13T20:41:55.529Z,4.85
2019-05-13T20:44:22.117Z,7.33
2019-05-13T20:46:51.854Z,10.10
2019-05-13T20:49:21.859Z,5.97
2019-05-13T20:51:51.682Z,10.13
2019-05-13T20:54:22.119Z,7.95
2019-05-13T20:56:51.807Z,4.17
2019-05-13T20:59:21.564Z,5.55
2019-05-13T21:01:51.148Z,7.05
2019-05-13T21:04:21.530Z,6.80
2019-05-13T21:06:51.597Z,10.48
2019-05-13T21:09:20.232Z,7.47
2019-05-13T21:11:51.354Z,7.55
2019-05-13T21:14:21.390Z,9.90
2019-05-13T21:16:49.154Z,4.67
2019-05-13T21:19:17.571Z,8.30
2019-05-13T21:21:46.106Z,8.05
2019-05-13T21:24:14.789Z,9.80
2019-05-13T21:26:43.203Z,9.40
2019-05-13T21:29:11.795Z,9.05
2019-05-13T21:31:41.407Z,9.03
2019-05-13T21:34:11.927Z,10.70
2019-05-13T21:36:41.177Z,9.03
2019-05-13T21:39:12.221Z,8.75
2019-05-13T21:41:41.304Z,9.63
2019-05-13T21:44:11.929Z,7.53
2019-05-13T21:46:41.182Z,10.50
2019-05-13T21:49:11.843Z,6.90
2019-05-13T21:51:41.784Z,8.45
2019-05-13T21:54:11.848Z,7.85
2019-05-13T21:56:42.629Z,5.30
2019-05-13T21:59:10.815Z,8.23
2019-05-13T22:01:42.076Z,8.05
2019-05-13T22:04:09.388Z,6.33
2019-05-13T22:06:38.049Z,5.67
2019-05-13T22:09:08.855Z,5.97
2019-05-13T22:11:37.531Z,7.12
2019-05-13T22:14:06.178Z,5.58
2019-05-13T22:16:34.605Z,6.42
2019-05-13T22:19:03.097Z,6.10
2019-05-13T22:21:31.705Z,6.10
2019-05-13T22:24:02.219Z,6.15
2019-05-13T22:26:31.167Z,4.92
2019-05-13T22:28:59.699Z,6.87
2019-05-13T22:31:28.128Z,10.25
2019-05-13T22:33:56.550Z,5.70
2019-05-13T22:36:24.988Z,7.50
2019-05-13T22:38:53.411Z,8.80
2019-05-13T22:41:22.348Z,8.88
2019-05-13T22:43:58.138Z,7.92
2019-05-13T22:46:21.514Z,8.08
2019-05-13T22:48:51.252Z,8.13
2019-05-13T22:51:21.390Z,9.28
2019-05-13T22:53:50.079Z,6.92
2019-05-13T22:56:18.528Z,5.92
2019-05-13T22:58:47.262Z,6.70
2019-05-13T23:01:16.254Z,8.03
2019-05-13T23:03:44.884Z,5.15
2019-05-13T23:06:13.343Z,10.78
2019-05-13T23:08:41.785Z,12.33
2019-05-13T23:11:10.244Z,9.15
2019-05-13T23:13:38.967Z,8.03
2019-05-13T23:16:07.383Z,8.68
2019-05-13T23:18:36.090Z,11.90
2019-05-13T23:21:04.821Z,9.80
2019-05-13T23:23:33.244Z,7.58
2019-05-13T23:26:01.764Z,8.25
2019-05-13T23:28:32.277Z,9.48
2019-05-13T23:31:01.714Z,6.83
2019-05-13T23:33:31.390Z,12.55
2019-05-13T23:36:01.535Z,6.85
2019-05-13T23:38:32.021Z,10.78
2019-05-13T23:41:02.085Z,6.70
2019-05-13T23:43:31.106Z,8.80
2019-05-13T23:46:01.172Z,5.75
2019-05-13T23:48:31.994Z,8.15
2019-05-13T23:51:01.353Z,8.03
2019-05-13T23:53:31.545Z,7.10
2019-05-13T23:56:02.004Z,7.60
2019-05-13T23:58:32.108Z,6.08
